Boling, Texas
Current Conditions -  °F | °C
As of 7:35 PM on Thursday 18 Dec 2014 (Local Time) from KARM Reporting Station
Overcast Overcast  
Wind Chill: 65°   Ceiling: 3900
Heat Index: 65°   Visibility: 10mi
Dew Point: 61°   Wind: 6mph
Humidity: 86%   Direction: 30°NNE
Pressure: 30.04"   Gusts: NA
Location:  29.26°N, 95.94°W
Report Text: KARM 190135Z AUTO 03005KT 10SM OVC039 19/16 A3004 RMK AO2 T01850161
Loading
Personal Weather Stations






























Interactive Weather Map New forecast layout! Learn more

10-Day Weather Forecast

Advertisements
Track Severe Weather on mobile